Time;durP1;ratioP1;P1;durP2;ratioP2;P2;SDS_P1;SDS_P2;PMS_P1;PMS_P2;Temp;Humidity;BMP_temperature;BMP_pressure;BME280_temperature;BME280_humidity;BME280_pressure;Samples;Min_cycle;Max_cycle;Signal;HPM_P1;HPM_P2
2021/03/29 00:02:03;;;;;;;;;;;;;;;9.45;100.00;101860.75;5074792;28;20363;-71
2021/03/29 00:04:29;;;;;;;;;;;;;;;9.45;100.00;101863.47;5074948;28;19924;-71
2021/03/29 00:06:57;;;;;;;;;;;;;;;9.46;100.00;101850.78;5074756;28;20430;-71
2021/03/29 00:09:24;;;;;;;;;;;;;;;9.48;100.00;101852.44;5074862;28;19928;-71
2021/03/29 00:11:50;;;;;;;;;;;;;;;9.47;100.00;101856.13;5056835;28;20355;-71
2021/03/29 00:14:17;;;;;;;;;;;;;;;9.46;100.00;101858.91;5074653;28;19986;-71
2021/03/29 00:16:43;;;;;;;;;;;;;;;9.46;100.00;101854.38;5074505;28;20384;-71
2021/03/29 00:19:09;;;;;;;;;;;;;;;9.46;100.00;101848.97;5074675;28;19925;-71
2021/03/29 00:21:36;;;;;;;;;;;;;;;9.49;100.00;101856.03;5074693;28;19930;-71
2021/03/29 00:24:03;;;;;;;;;;;;;;;9.49;100.00;101856.03;5074619;28;19978;-71
2021/03/29 00:26:29;;;;;;;;;;;;;;;9.49;100.00;101850.63;5072929;28;20416;-71
2021/03/29 00:28:55;;;;;;;;;;;;;;;9.48;100.00;101851.59;5075314;28;19924;-71
2021/03/29 00:31:20;;;;;;;;;;;;;;;9.48;100.00;101849.72;5076382;28;19931;-71
2021/03/29 00:33:48;;;;;;;;;;;;;;;9.49;100.00;101854.19;5075894;28;19932;-70
2021/03/29 00:36:15;;;;;;;;;;;;;;;9.49;100.00;101854.19;5057802;28;19929;-71
2021/03/29 00:38:42;;;;;;;;;;;;;;;9.46;100.00;101857.09;5076171;28;19924;-71
2021/03/29 00:41:09;;;;;;;;;;;;;;;9.47;100.00;101856.13;5076943;28;19983;-71
2021/03/29 00:43:37;;;;;;;;;;;;;;;9.46;100.00;101862.53;5077351;28;19924;-71
2021/03/29 00:46:05;;;;;;;;;;;;;;;9.52;100.00;101861.28;5081064;28;19946;-71
2021/03/29 00:48:32;;;;;;;;;;;;;;;9.56;100.00;101862.84;5072837;28;20288;-71
2021/03/29 00:51:04;;;;;;;;;;;;;;;9.57;100.00;101866.41;5056126;28;20020;-71
2021/03/29 00:53:31;;;;;;;;;;;;;;;9.54;100.00;101862.06;5072806;28;20018;-71
2021/03/29 00:55:57;;;;;;;;;;;;;;;9.52;100.00;101851.31;5072577;28;19924;-71
2021/03/29 00:58:25;;;;;;;;;;;;;;;9.52;100.00;101864.00;5074240;28;19925;-71
2021/03/29 01:00:52;;;;;;;;;;;;;;;9.53;100.00;101861.19;5073941;28;20346;-71
2021/03/29 01:03:20;;;;;;;;;;;;;;;9.58;100.00;101863.63;5073926;28;19925;-71
2021/03/29 01:05:46;;;;;;;;;;;;;;;9.57;100.00;101867.31;5072231;28;19925;-71
2021/03/29 01:08:13;;;;;;;;;;;;;;;9.61;100.00;101866.16;5073839;28;19925;-71
2021/03/29 01:10:39;;;;;;;;;;;;;;;9.62;100.00;101857.06;5073861;28;19936;-71
2021/03/29 01:13:07;;;;;;;;;;;;;;;9.63;100.00;101860.66;5073544;28;19924;-71
2021/03/29 01:15:36;;;;;;;;;;;;;;;9.62;100.00;101858.88;5073429;28;20281;-71
2021/03/29 01:18:02;;;;;;;;;;;;;;;9.63;100.00;101863.34;5074132;28;19932;-70
2021/03/29 01:20:41;;;;;;;;;;;;;;;9.62;100.00;101859.78;5074327;28;19971;-70
2021/03/29 01:23:07;;;;;;;;;;;;;;;9.60;100.00;101863.53;5073559;28;19925;-71
2021/03/29 01:25:36;;;;;;;;;;;;;;;9.61;100.00;101854.47;5072030;28;19935;-72
2021/03/29 01:28:05;;;;;;;;;;;;;;;9.60;100.00;101850.00;5073401;28;19925;-71
2021/03/29 01:30:31;;;;;;;;;;;;;;;9.59;100.00;101849.09;5072274;28;19924;-71
2021/03/29 01:32:58;;;;;;;;;;;;;;;9.61;100.00;101857.16;5073323;28;19928;-71
2021/03/29 01:35:27;;;;;;;;;;;;;;;9.59;100.00;101851.81;5073010;28;20277;-71
2021/03/29 01:37:54;;;;;;;;;;;;;;;9.57;100.00;101866.41;5073267;28;20309;-72
2021/03/29 01:40:21;;;;;;;;;;;;;;;9.53;100.00;101858.47;5072902;28;19987;-72
2021/03/29 01:42:47;;;;;;;;;;;;;;;9.52;100.00;101856.72;5073132;28;20401;-72
2021/03/29 01:45:15;;;;;;;;;;;;;;;9.51;100.00;101851.38;5072911;28;19924;-71
2021/03/29 01:47:41;;;;;;;;;;;;;;;9.50;100.00;101855.94;5072828;28;20335;-71
2021/03/29 01:50:08;;;;;;;;;;;;;;;9.50;100.00;101850.53;5073039;28;19981;-71
2021/03/29 01:52:34;;;;;;;;;;;;;;;9.51;100.00;101857.72;5054877;28;19928;-71
2021/03/29 01:55:00;;;;;;;;;;;;;;;9.52;100.00;101851.31;5072862;28;20019;-71
2021/03/29 01:57:26;;;;;;;;;;;;;;;9.51;100.00;101846.88;5072443;28;20377;-71
2021/03/29 01:59:53;;;;;;;;;;;;;;;9.52;100.00;101854.00;5072407;28;19929;-71
2021/03/29 02:02:20;;;;;;;;;;;;;;;9.53;100.00;101854.91;5072667;28;19924;-71
2021/03/29 02:04:46;;;;;;;;;;;;;;;9.55;100.00;101848.44;5072545;28;19955;-71
2021/03/29 02:07:13;;;;;;;;;;;;;;;9.51;100.00;101852.28;5072453;28;20148;-71
2021/03/29 02:09:39;;;;;;;;;;;;;;;9.49;100.00;101856.03;5072547;28;19951;-70
2021/03/29 02:12:06;;;;;;;;;;;;;;;9.48;100.00;101852.44;5072485;28;19925;-71
2021/03/29 02:14:33;;;;;;;;;;;;;;;9.51;100.00;101846.88;5072460;28;19931;-70
2021/03/29 02:16:59;;;;;;;;;;;;;;;9.52;100.00;101840.44;5072191;28;20011;-71
2021/03/29 02:19:26;;;;;;;;;;;;;;;9.54;100.00;101834.97;5072377;28;19935;-70
2021/03/29 02:21:54;;;;;;;;;;;;;;;9.55;100.00;101825.84;5072391;28;20006;-71
2021/03/29 02:24:21;;;;;;;;;;;;;;;9.51;100.00;101841.44;5072413;28;19924;-70
2021/03/29 02:26:47;;;;;;;;;;;;;;;9.52;100.00;101836.88;5072057;28;19928;-70
2021/03/29 02:29:17;;;;;;;;;;;;;;;9.49;100.00;101837.94;5072287;28;19967;-70
2021/03/29 02:31:43;;;;;;;;;;;;;;;9.51;100.00;101835.13;5072419;28;20645;-70
2021/03/29 02:34:09;;;;;;;;;;;;;;;9.49;100.00;101831.66;5072027;28;19925;-71
2021/03/29 02:36:35;;;;;;;;;;;;;;;9.48;100.00;101841.59;5071718;28;19969;-70
2021/03/29 02:39:01;;;;;;;;;;;;;;;9.43;100.00;101841.00;5072108;28;19931;-70
2021/03/29 02:41:29;;;;;;;;;;;;;;;9.41;100.00;101840.22;5072241;28;19929;-70
2021/03/29 02:43:56;;;;;;;;;;;;;;;9.39;100.00;101842.13;5070734;28;19964;-70
2021/03/29 02:46:22;;;;;;;;;;;;;;;9.34;100.00;101836.13;5071729;28;19924;-70
2021/03/29 02:48:49;;;;;;;;;;;;;;;9.26;100.00;101841.13;5072005;28;19929;-71
2021/03/29 02:51:16;;;;;;;;;;;;;;;9.34;100.00;101838.81;5071814;28;19929;-71
2021/03/29 02:53:46;;;;;;;;;;;;;;;9.34;100.00;101847.84;5071812;28;19936;-71
2021/03/29 02:56:15;;;;;;;;;;;;;;;9.35;100.00;101840.56;5071361;28;19925;-71
2021/03/29 02:58:42;;;;;;;;;;;;;;;9.29;100.00;101841.81;5071717;28;19924;-71
2021/03/29 03:01:08;;;;;;;;;;;;;;;9.26;100.00;101847.44;5072061;28;19936;-72
2021/03/29 03:03:35;;;;;;;;;;;;;;;9.30;100.00;101846.28;5071797;28;19924;-71
2021/03/29 03:06:01;;;;;;;;;;;;;;;9.32;100.00;101840.75;5071496;28;19982;-71
2021/03/29 03:08:27;;;;;;;;;;;;;;;9.30;100.00;101840.88;5071434;28;20221;-72
2021/03/29 03:10:54;;;;;;;;;;;;;;;9.21;100.00;101828.72;5070791;28;19971;-72
2021/03/29 03:13:20;;;;;;;;;;;;;;;9.27;100.00;101845.56;5071355;28;20027;-71
2021/03/29 03:15:46;;;;;;;;;;;;;;;9.26;100.00;101841.13;5071595;28;19989;-72
2021/03/29 03:18:12;;;;;;;;;;;;;;;9.23;100.00;101844.88;5071545;28;20027;-71
2021/03/29 03:20:39;;;;;;;;;;;;;;;9.27;100.00;101845.56;5071362;28;19955;-70
2021/03/29 03:23:12;;;;;;;;;;;;;;;9.28;100.00;101839.19;5070793;28;22465;-72
2021/03/29 03:25:40;;;;;;;;;;;;;;;9.30;100.00;101845.38;5071026;28;19935;-71
2021/03/29 03:28:07;;;;;;;;;;;;;;;9.32;100.00;101840.75;5070291;28;19924;-71
2021/03/29 03:30:35;;;;;;;;;;;;;;;9.35;100.00;101856.84;5071283;28;19928;-71
2021/03/29 03:33:02;;;;;;;;;;;;;;;9.35;100.00;101856.84;5071398;28;19925;-71
2021/03/29 03:35:28;;;;;;;;;;;;;;;9.34;100.00;101855.09;5071106;28;20297;-71
2021/03/29 03:37:56;;;;;;;;;;;;;;;9.37;100.00;101863.06;5071579;28;20385;-71
2021/03/29 03:40:23;;;;;;;;;;;;;;;9.32;100.00;101857.88;5071146;28;19978;-71
2021/03/29 03:42:49;;;;;;;;;;;;;;;9.34;100.00;101857.78;5071342;28;20030;-71
2021/03/29 03:45:18;;;;;;;;;;;;;;;9.33;100.00;101864.19;5071285;28;19924;-71
2021/03/29 03:47:44;;;;;;;;;;;;;;;9.30;100.00;101858.94;5071081;28;20033;-71
2021/03/29 03:50:11;;;;;;;;;;;;;;;9.29;100.00;101863.50;5071536;28;20385;-71
2021/03/29 03:52:38;;;;;;;;;;;;;;;9.28;100.00;101863.59;5053649;28;19960;-71
2021/03/29 03:55:05;;;;;;;;;;;;;;;9.25;100.00;101855.66;5071683;28;19932;-72
2021/03/29 03:57:31;;;;;;;;;;;;;;;9.26;100.00;101851.94;5036864;28;20355;-72
2021/03/29 03:59:57;;;;;;;;;;;;;;;9.21;100.00;101855.78;5071484;28;19970;-71
2021/03/29 04:02:24;;;;;;;;;;;;;;;9.18;100.00;101847.00;5071308;28;20389;-71
2021/03/29 04:04:50;;;;;;;;;;;;;;;9.16;100.00;101851.63;5078849;28;19925;-75
2021/03/29 04:07:16;;;;;;;;;;;;;;;9.12;100.00;101847.34;5078545;28;19932;-72
2021/03/29 04:09:45;;;;;;;;;;;;;;;9.10;100.00;101849.25;5075015;28;19924;-71
2021/03/29 04:12:11;;;;;;;;;;;;;;;9.08;100.00;101849.34;5071110;28;19932;-70
2021/03/29 04:14:37;;;;;;;;;;;;;;;9.03;100.00;101844.19;5070888;28;19924;-71
2021/03/29 04:17:03;;;;;;;;;;;;;;;8.99;100.00;101841.75;5052832;28;19970;-71
2021/03/29 04:19:30;;;;;;;;;;;;;;;8.95;100.00;101845.59;5070948;28;19928;-71
2021/03/29 04:21:56;;;;;;;;;;;;;;;8.91;100.00;101839.44;5071949;28;19924;-71
2021/03/29 04:24:22;;;;;;;;;;;;;;;8.87;100.00;101855.03;5074408;28;19978;-71
2021/03/29 04:26:48;;;;;;;;;;;;;;;8.82;100.00;101840.88;5074479;28;19924;-71
2021/03/29 04:29:14;;;;;;;;;;;;;;;8.76;100.00;101843.91;5074506;28;20038;-71
2021/03/29 04:31:39;;;;;;;;;;;;;;;8.69;100.00;101847.94;5056690;28;20015;-71
2021/03/29 04:34:05;;;;;;;;;;;;;;;8.63;100.00;101845.53;5074459;28;19925;-71
2021/03/29 04:36:32;;;;;;;;;;;;;;;8.57;100.00;101841.34;5074068;28;19929;-71
2021/03/29 04:38:58;;;;;;;;;;;;;;;8.54;100.00;101850.50;5074121;28;19935;-71
2021/03/29 04:41:23;;;;;;;;;;;;;;;8.53;100.00;101847.91;5073328;28;19960;-71
2021/03/29 04:43:49;;;;;;;;;;;;;;;8.48;100.00;101842.72;5073904;28;19924;-71
2021/03/29 04:46:15;;;;;;;;;;;;;;;8.46;100.00;101846.50;5073552;28;19939;-71
2021/03/29 04:48:41;;;;;;;;;;;;;;;8.43;100.00;101847.50;5073704;28;19936;-71
2021/03/29 04:51:07;;;;;;;;;;;;;;;8.43;100.00;101842.09;5074189;28;20011;-71
2021/03/29 04:53:34;;;;;;;;;;;;;;;8.40;100.00;101847.66;5073352;28;20656;-71
2021/03/29 04:56:00;;;;;;;;;;;;;;;8.38;100.00;101842.31;5073589;28;20062;-71
2021/03/29 04:58:25;;;;;;;;;;;;;;;8.37;100.00;101842.41;5073812;28;20019;-71
2021/03/29 05:00:51;;;;;;;;;;;;;;;8.38;100.00;101849.56;5073872;28;20381;-71
2021/03/29 05:03:17;;;;;;;;;;;;;;;8.39;100.00;101845.88;5073926;28;19964;-71
2021/03/29 05:05:43;;;;;;;;;;;;;;;8.42;100.00;101861.09;5073555;28;19924;-71
2021/03/29 05:08:09;;;;;;;;;;;;;;;8.43;100.00;101861.03;5073528;28;19935;-70
2021/03/29 05:10:39;;;;;;;;;;;;;;;8.45;100.00;101860.94;5073660;28;19932;-70
2021/03/29 05:13:05;;;;;;;;;;;;;;;8.48;100.00;101861.66;5055250;28;19925;-70
2021/03/29 05:15:31;;;;;;;;;;;;;;;8.52;100.00;101867.78;5073382;28;19931;-71
2021/03/29 05:17:57;;;;;;;;;;;;;;;8.57;100.00;101862.16;5073388;28;19924;-72
2021/03/29 05:20:23;;;;;;;;;;;;;;;8.57;100.00;101862.16;5073243;28;19931;-73
2021/03/29 05:22:49;;;;;;;;;;;;;;;8.61;100.00;101869.13;5073261;28;19997;-72
2021/03/29 05:25:15;;;;;;;;;;;;;;;8.69;100.00;101861.47;5073118;28;19924;-72
2021/03/29 05:27:42;;;;;;;;;;;;;;;8.78;100.00;101869.06;5072837;28;19947;-72
2021/03/29 05:30:08;;;;;;;;;;;;;;;8.87;100.00;101862.25;5072008;28;20026;-72
2021/03/29 05:32:34;;;;;;;;;;;;;;;8.95;100.00;101870.84;5072264;28;20234;-72
2021/03/29 05:35:01;;;;;;;;;;;;;;;9.05;100.00;101876.59;5050779;28;19924;-72
2021/03/29 05:37:27;;;;;;;;;;;;;;;9.10;100.00;101874.53;5064557;28;19932;-72
2021/03/29 05:39:54;;;;;;;;;;;;;;;9.13;100.00;101868.06;5073111;28;19939;-72
2021/03/29 05:42:21;;;;;;;;;;;;;;;9.19;100.00;101871.28;5072532;28;19925;-72
2021/03/29 05:44:47;;;;;;;;;;;;;;;9.26;100.00;101870.91;5072744;28;19975;-71
2021/03/29 05:47:14;;;;;;;;;;;;;;;9.31;100.00;101879.66;5059474;28;20329;-72
2021/03/29 05:49:39;;;;;;;;;;;;;;;9.29;100.00;101881.59;5047756;28;19928;-72
2021/03/29 05:52:05;;;;;;;;;;;;;;;9.25;100.00;101882.75;5072017;28;19932;-72
2021/03/29 05:54:31;;;;;;;;;;;;;;;9.20;100.00;101880.28;5071805;28;19937;-72
2021/03/29 05:56:57;;;;;;;;;;;;;;;9.16;100.00;101878.72;5067695;28;19937;-72
2021/03/29 05:59:26;;;;;;;;;;;;;;;9.18;100.00;101879.50;5072625;28;19924;-72
2021/03/29 06:01:53;;;;;;;;;;;;;;;9.18;100.00;101893.91;5072318;28;20069;-72
2021/03/29 06:04:34;;;;;;;;;;;;;;;9.18;100.00;101893.06;5072402;28;20034;-72
2021/03/29 06:07:00;;;;;;;;;;;;;;;9.19;100.00;101892.97;5071274;28;20485;-72
2021/03/29 06:09:26;;;;;;;;;;;;;;;9.24;100.00;101894.53;5072202;28;19928;-72
2021/03/29 06:11:51;;;;;;;;;;;;;;;9.29;100.00;101900.56;5071859;28;19978;-72
2021/03/29 06:14:19;;;;;;;;;;;;;;;9.34;100.00;101898.44;5072403;28;19924;-72
2021/03/29 06:16:51;;;;;;;;;;;;;;;9.34;100.00;101885.78;5071650;28;19924;-72
2021/03/29 06:19:32;;;;;;;;;;;;;;;9.38;100.00;101894.63;5072214;28;19931;-72
2021/03/29 06:22:05;;;;;;;;;;;;;;;9.44;100.00;101896.97;5072213;28;19928;-72
2021/03/29 06:24:50;;;;;;;;;;;;;;;9.52;100.00;101896.50;5072173;28;19928;-72
2021/03/29 06:27:15;;;;;;;;;;;;;;;9.62;100.00;101894.13;5071713;28;19985;-72
2021/03/29 06:29:41;;;;;;;;;;;;;;;9.70;100.00;101889.13;5071375;28;19932;-72
2021/03/29 06:32:07;;;;;;;;;;;;;;;9.81;100.00;101902.06;5072324;28;19924;-71
2021/03/29 06:34:34;;;;;;;;;;;;;;;9.88;100.00;101893.47;5071807;28;20637;-70
2021/03/29 06:37:05;;;;;;;;;;;;;;;9.98;100.00;101893.81;5070934;28;20023;-72
2021/03/29 06:39:34;;;;;;;;;;;;;;;10.09;100.00;101893.16;5071409;28;20444;-72
2021/03/29 06:42:00;;;;;;;;;;;;;;;10.19;100.00;101886.16;5071895;28;19924;-71
2021/03/29 06:44:27;;;;;;;;;;;;;;;10.21;100.00;101886.97;5062233;28;19925;-72
2021/03/29 06:47:11;;;;;;;;;;;;;;;10.25;100.00;101882.22;5051490;28;19929;-72
2021/03/29 06:49:39;;;;;;;;;;;;;;;10.34;100.00;101886.19;5063227;28;19932;-72
2021/03/29 06:52:19;;;;;;;;;;;;;;;10.42;100.00;101875.75;5071278;28;19928;-71
2021/03/29 06:54:44;;;;;;;;;;;;;;;10.55;100.00;101876.78;5071375;28;19924;-72
2021/03/29 06:57:10;;;;;;;;;;;;;;;10.62;100.00;101876.38;5071189;28;19958;-72
2021/03/29 06:59:37;;;;;;;;;;;;;;;10.67;100.00;101879.66;5070399;28;19937;-72
2021/03/29 07:02:06;;;;;;;;;;;;;;;10.73;100.00;101879.28;5071681;28;20401;-72
2021/03/29 07:04:33;;;;;;;;;;;;;;;10.80;100.00;101880.63;5049830;28;19924;-73
2021/03/29 07:07:02;;;;;;;;;;;;;;;10.82;100.00;101872.38;5051312;28;19929;-72
2021/03/29 07:09:32;;;;;;;;;;;;;;;10.81;100.00;101881.50;5061492;28;19924;-72
2021/03/29 07:11:59;;;;;;;;;;;;;;;10.82;100.00;101876.00;5071258;28;19971;-72
2021/03/29 07:14:25;;;;;;;;;;;;;;;10.86;100.00;101880.25;5071036;28;19925;-72
2021/03/29 07:16:52;;;;;;;;;;;;;;;10.84;100.00;101889.47;5071190;28;19983;-71
2021/03/29 07:19:18;;;;;;;;;;;;;;;10.92;100.00;101894.41;5049866;28;19947;-72
2021/03/29 07:21:43;;;;;;;;;;;;;;;10.95;100.00;101883.34;5064607;28;19925;-70
2021/03/29 07:24:11;;;;;;;;;;;;;;;11.00;100.00;101889.34;5070783;28;19932;-72
2021/03/29 07:26:39;;;;;;;;;;;;;;;11.05;100.00;101884.50;5056603;28;19931;-72
2021/03/29 07:29:15;;;;;;;;;;;;;;;11.15;100.00;101882.03;5071262;28;19972;-72
2021/03/29 07:31:42;;;;;;;;;;;;;;;11.17;100.00;101880.09;5071327;28;20535;-72
2021/03/29 07:34:08;;;;;;;;;;;;;;;11.20;100.00;101896.22;5070898;28;19978;-72
2021/03/29 07:36:44;;;;;;;;;;;;;;;11.20;100.00;101896.22;5070742;28;19928;-72
2021/03/29 07:39:12;;;;;;;;;;;;;;;11.18;100.00;101903.56;5051670;28;19929;-73
2021/03/29 07:41:38;;;;;;;;;;;;;;;11.24;100.00;101905.91;5068701;28;19925;-72
2021/03/29 07:44:11;;;;;;;;;;;;;;;11.33;100.00;101898.97;5052165;28;20254;-72
2021/03/29 07:46:38;;;;;;;;;;;;;;;11.36;100.00;101901.50;5053097;28;19929;-72
2021/03/29 07:49:04;;;;;;;;;;;;;;;11.48;100.00;101908.00;5059373;28;19936;-72
2021/03/29 07:51:30;;;;;;;;;;;;;;;11.54;100.00;101915.72;5071781;28;20019;-72
2021/03/29 07:54:01;;;;;;;;;;;;;;;11.63;100.00;101912.38;5081943;28;19928;-72
2021/03/29 07:56:40;;;;;;;;;;;;;;;11.72;100.00;101909.06;5081605;28;19924;-72
2021/03/29 07:59:06;;;;;;;;;;;;;;;11.73;100.00;101904.47;5086436;28;20269;-72
2021/03/29 08:01:47;;;;;;;;;;;;;;;11.79;100.00;101898.63;5079794;28;20015;-72
2021/03/29 08:04:14;;;;;;;;;;;;;;;11.83;100.00;101904.75;5074403;28;19960;-71
2021/03/29 08:06:49;;;;;;;;;;;;;;;12.04;100.00;101911.47;5074633;28;19929;-72
2021/03/29 08:09:17;;;;;;;;;;;;;;;12.17;100.00;101910.59;5074506;28;19926;-71
2021/03/29 08:11:51;;;;;;;;;;;;;;;12.27;100.00;101894.53;5073818;28;20010;-72
2021/03/29 08:14:27;;;;;;;;;;;;;;;12.52;100.00;101910.88;5071837;28;19924;-72
2021/03/29 08:16:53;;;;;;;;;;;;;;;12.78;100.00;101897.22;5058690;28;20044;-72
2021/03/29 08:19:20;;;;;;;;;;;;;;;12.86;100.00;101894.81;5071858;28;19967;-72
2021/03/29 08:21:47;;;;;;;;;;;;;;;13.04;99.00;101898.06;5073109;28;19924;-72
2021/03/29 08:24:17;;;;;;;;;;;;;;;13.23;99.26;101911.22;5069616;28;19932;-72
2021/03/29 08:26:43;;;;;;;;;;;;;;;13.26;97.00;101912.00;5070271;28;20322;-73
2021/03/29 08:29:13;;;;;;;;;;;;;;;13.32;97.68;101900.59;5074222;28;19982;-72
2021/03/29 08:31:58;;;;;;;;;;;;;;;13.26;95.34;101906.53;5069479;28;19928;-71
2021/03/29 08:34:24;;;;;;;;;;;;;;;13.35;94.07;101914.03;5074162;28;19925;-71
2021/03/29 08:36:50;;;;;;;;;;;;;;;13.40;94.73;101909.13;5074025;28;19924;-72
2021/03/29 08:39:16;;;;;;;;;;;;;;;13.30;92.12;101908.03;5073944;28;20396;-71
2021/03/29 08:41:43;;;;;;;;;;;;;;;13.26;92.31;101903.81;5074267;28;19939;-72
2021/03/29 08:44:10;;;;;;;;;;;;;;;13.37;91.91;101902.06;5052469;28;19929;-71
2021/03/29 08:46:37;;;;;;;;;;;;;;;13.69;91.40;101897.88;5062828;28;19950;-72
2021/03/29 08:49:07;;;;;;;;;;;;;;;13.94;88.47;101910.53;5073886;28;19925;-73
2021/03/29 08:51:33;;;;;;;;;;;;;;;14.02;86.03;101915.41;5066548;28;19932;-72
2021/03/29 08:54:05;;;;;;;;;;;;;;;14.10;85.36;101915.66;5054007;28;19928;-72
2021/03/29 08:56:38;;;;;;;;;;;;;;;14.05;86.06;101920.63;5067742;28;19931;-72
2021/03/29 08:59:04;;;;;;;;;;;;;;;14.02;86.74;101918.13;5073671;28;19928;-72
2021/03/29 09:01:30;;;;;;;;;;;;;;;13.86;86.95;101918.44;5073502;28;20301;-72
2021/03/29 09:06:37;;;;;;;;;;;;;;;13.85;88.81;101923.00;5063551;22;20439;-65
2021/03/29 09:09:10;;;;;;;;;;;;;;;13.94;89.67;101924.16;5059938;28;19940;-65
2021/03/29 09:11:38;;;;;;;;;;;;;;;13.93;87.49;101902.47;5066789;28;19928;-65
2021/03/29 09:14:04;;;;;;;;;;;;;;;13.97;87.04;101912.16;5052375;28;20379;-65
2021/03/29 09:16:30;;;;;;;;;;;;;;;14.14;88.71;101922.63;5051226;28;19931;-65
2021/03/29 09:18:55;;;;;;;;;;;;;;;14.21;88.15;101921.16;5037875;28;20569;-65
2021/03/29 09:21:25;;;;;;;;;;;;;;;14.20;88.16;101918.53;5051888;28;20481;-64
2021/03/29 09:23:51;;;;;;;;;;;;;;;14.36;87.77;101916.38;5052727;28;19960;-66
2021/03/29 09:26:24;;;;;;;;;;;;;;;14.81;85.85;101901.91;5052143;28;19925;-66
2021/03/29 09:28:52;;;;;;;;;;;;;;;15.09;84.31;101899.69;5051867;28;19925;-65
2021/03/29 09:31:19;;;;;;;;;;;;;;;15.88;80.53;101893.16;5052418;28;19925;-66
2021/03/29 09:33:46;;;;;;;;;;;;;;;16.54;74.38;101895.66;5052829;28;19929;-64
2021/03/29 09:36:14;;;;;;;;;;;;;;;16.80;70.23;101889.72;5052209;28;19932;-63
2021/03/29 09:38:40;;;;;;;;;;;;;;;17.22;67.14;101880.50;5042496;28;19929;-65
2021/03/29 09:41:14;;;;;;;;;;;;;;;17.78;64.27;101876.25;5051445;28;19979;-64
2021/03/29 09:43:41;;;;;;;;;;;;;;;17.84;62.20;101896.78;5051984;28;19925;-65
2021/03/29 09:46:06;;;;;;;;;;;;;;;17.84;60.84;101891.31;5051796;28;19935;-65
2021/03/29 09:48:32;;;;;;;;;;;;;;;17.82;60.79;101885.94;5045521;28;19933;-64
2021/03/29 09:50:58;;;;;;;;;;;;;;;17.82;61.17;101885.06;5043354;28;20298;-65
2021/03/29 09:53:32;;;;;;;;;;;;;;;17.39;60.75;101885.31;5033827;28;19936;-65
2021/03/29 09:56:00;;;;;;;;;;;;;;;16.96;62.03;101888.38;5039863;28;19925;-64
2021/03/29 09:58:29;;;;;;;;;;;;;;;16.63;61.05;101884.88;5032478;28;20285;-65
2021/03/29 10:00:56;;;;;;;;;;;;;;;16.56;63.40;101893.63;5032035;28;20351;-64
2021/03/29 10:03:22;;;;;;;;;;;;;;;16.60;62.56;101882.41;5035636;28;19932;-64
2021/03/29 10:05:48;;;;;;;;;;;;;;;16.44;63.72;101886.50;5038670;28;20291;-64
2021/03/29 10:08:28;;;;;;;;;;;;;;;16.37;63.96;101888.91;5034968;28;20276;-65
2021/03/29 10:10:58;;;;;;;;;;;;;;;16.15;63.53;101881.69;5042598;28;20448;-64
2021/03/29 10:13:30;;;;;;;;;;;;;;;17.07;62.54;101896.50;5045967;28;19925;-64
2021/03/29 10:15:58;;;;;;;;;;;;;;;16.94;59.76;101883.00;5051858;28;20002;-64
2021/03/29 10:18:30;;;;;;;;;;;;;;;16.63;61.61;101882.13;5041909;28;20422;-64
2021/03/29 10:21:03;;;;;;;;;;;;;;;16.75;60.41;101894.72;5033127;28;19987;-64
2021/03/29 10:23:30;;;;;;;;;;;;;;;16.54;61.29;101872.84;5022884;28;19924;-66
2021/03/29 10:26:16;;;;;;;;;;;;;;;16.79;61.75;101879.75;5043254;28;19925;-64
2021/03/29 10:28:52;;;;;;;;;;;;;;;16.50;59.83;101877.75;5031849;28;19929;-65
2021/03/29 10:31:19;;;;;;;;;;;;;;;16.72;61.01;101886.78;5045429;28;19925;-65
2021/03/29 10:33:45;;;;;;;;;;;;;;;16.84;61.55;101890.31;5051867;28;20395;-65
2021/03/29 10:36:14;;;;;;;;;;;;;;;16.46;61.22;101889.09;5033859;28;19925;-65
2021/03/29 10:38:40;;;;;;;;;;;;;;;16.44;61.71;101881.00;5032778;28;19925;-64
2021/03/29 10:41:06;;;;;;;;;;;;;;;16.60;61.50;101887.91;5041243;28;20017;-64
2021/03/29 10:43:32;;;;;;;;;;;;;;;16.75;60.26;101883.78;5039992;28;19925;-65
2021/03/29 10:45:58;;;;;;;;;;;;;;;16.77;59.89;101892.75;5032539;28;19932;-64
2021/03/29 10:48:24;;;;;;;;;;;;;;;16.43;61.16;101890.22;5025290;28;20019;-64
2021/03/29 10:50:50;;;;;;;;;;;;;;;15.86;62.04;101896.03;5049872;28;19925;-64
2021/03/29 10:53:16;;;;;;;;;;;;;;;15.78;63.83;101897.63;5043758;28;19925;-64
2021/03/29 10:55:42;;;;;;;;;;;;;;;15.61;71.71;101901.81;5050519;28;19998;-65
2021/03/29 10:58:08;;;;;;;;;;;;;;;15.17;82.37;101899.91;5023388;28;20280;-64
2021/03/29 11:00:34;;;;;;;;;;;;;;;14.96;87.72;101898.94;5038376;28;19968;-65
2021/03/29 11:03:00;;;;;;;;;;;;;;;14.66;86.40;101900.44;5052415;28;19932;-65
2021/03/29 11:05:27;;;;;;;;;;;;;;;14.64;89.96;101891.47;5046088;28;20007;-65
2021/03/29 11:07:53;;;;;;;;;;;;;;;14.56;87.52;101895.69;5050524;28;19928;-66
2021/03/29 11:10:19;;;;;;;;;;;;;;;14.66;88.54;101890.38;5050586;28;19932;-65
2021/03/29 11:12:44;;;;;;;;;;;;;;;14.79;84.52;101901.19;5040557;28;20480;-65
2021/03/29 11:15:11;;;;;;;;;;;;;;;15.23;85.68;101899.41;5038460;28;19925;-65
2021/03/29 11:17:38;;;;;;;;;;;;;;;15.39;81.11;101892.66;5032461;28;20340;-64
2021/03/29 11:20:05;;;;;;;;;;;;;;;15.40;77.09;101891.66;5035408;28;20380;-65
2021/03/29 11:22:31;;;;;;;;;;;;;;;15.64;77.04;101896.94;5031385;28;19925;-65
2021/03/29 11:24:58;;;;;;;;;;;;;;;15.94;73.71;101894.50;5032253;28;19925;-65
2021/03/29 11:27:23;;;;;;;;;;;;;;;16.13;73.68;101885.56;5021474;28;20367;-65
2021/03/29 11:29:50;;;;;;;;;;;;;;;16.31;71.01;101889.44;5048624;28;20015;-64
2021/03/29 11:32:16;;;;;;;;;;;;;;;16.16;68.44;101885.31;5031337;28;19932;-64
2021/03/29 11:34:42;;;;;;;;;;;;;;;16.16;71.01;101886.16;5033462;28;19929;-65
2021/03/29 11:37:08;;;;;;;;;;;;;;;16.09;69.21;101879.50;5039512;28;19971;-66
2021/03/29 11:39:35;;;;;;;;;;;;;;;16.05;69.49;101884.34;5041802;28;20018;-65
2021/03/29 11:42:01;;;;;;;;;;;;;;;16.15;69.09;101884.41;5013312;28;20260;-65
2021/03/29 11:44:27;;;;;;;;;;;;;;;16.25;68.12;101884.50;5030662;28;19971;-65
2021/03/29 11:46:53;;;;;;;;;;;;;;;16.27;66.74;101885.22;5035494;28;19935;-65
2021/03/29 11:49:19;;;;;;;;;;;;;;;16.24;66.94;101882.75;5043556;28;19961;-64
2021/03/29 11:51:45;;;;;;;;;;;;;;;16.23;68.46;101878.28;5031000;28;20015;-66
2021/03/29 11:54:11;;;;;;;;;;;;;;;16.05;66.91;101883.50;5046975;28;20070;-66
2021/03/29 11:56:37;;;;;;;;;;;;;;;16.43;66.11;101886.63;5049998;28;20261;-65
2021/03/29 11:59:03;;;;;;;;;;;;;;;16.13;64.57;101889.19;5047672;28;19933;-65
2021/03/29 12:01:37;;;;;;;;;;;;;;;16.20;64.95;101884.91;5030718;28;20380;-66
2021/03/29 12:04:07;;;;;;;;;;;;;;;16.08;64.15;101888.69;5030992;28;19952;-66
2021/03/29 12:06:38;;;;;;;;;;;;;;;16.40;64.43;101883.16;5030695;28;19929;-66
2021/03/29 12:09:11;;;;;;;;;;;;;;;16.49;62.07;101876.00;5038122;28;19932;-66
2021/03/29 12:11:51;;;;;;;;;;;;;;;17.06;60.66;101867.31;5049337;28;19929;-65
2021/03/29 12:14:17;;;;;;;;;;;;;;;17.83;58.35;101864.84;5030196;28;19940;-65
2021/03/29 12:16:48;;;;;;;;;;;;;;;17.36;57.09;101860.91;5046726;28;19940;-70
2021/03/29 12:19:16;;;;;;;;;;;;;;;17.54;58.89;101883.03;5044755;28;20307;-66
2021/03/29 12:21:44;;;;;;;;;;;;;;;17.24;58.35;101876.63;5049827;28;19933;-64
2021/03/29 12:24:13;;;;;;;;;;;;;;;17.56;59.01;101881.00;5032834;28;19925;-64
2021/03/29 12:26:40;;;;;;;;;;;;;;;17.73;58.34;101892.28;5032264;28;20415;-67
2021/03/29 12:29:07;;;;;;;;;;;;;;;17.82;57.27;101885.94;5030508;28;19931;-65
2021/03/29 12:31:34;;;;;;;;;;;;;;;17.87;56.10;101872.63;5046332;28;19935;-65
2021/03/29 12:34:00;;;;;;;;;;;;;;;18.24;55.81;101877.41;5032467;28;19924;-65
2021/03/29 12:36:30;;;;;;;;;;;;;;;18.25;56.69;101878.25;5021734;28;19929;-65
2021/03/29 12:39:01;;;;;;;;;;;;;;;18.40;54.97;101882.28;5043090;28;19925;-65
2021/03/29 12:41:29;;;;;;;;;;;;;;;18.85;55.15;101877.09;5040787;28;19955;-65